Bucyrus, North Dakota
Current Conditions -  °F | °C
As of 8:53 AM on Thursday 30 Oct 2014 (Local Time) from KHEI Reporting Station
Haze Haze  
Wind Chill: 26°   Ceiling: 500
Heat Index: 35°   Visibility: 5mi
Dew Point: 32°   Wind: 13mph
Humidity: 89%   Direction: 320°NW
Pressure: 30.31"   Gusts: NA
Location:  46.0942°N, 102.462°W
Report Text: KHEI 301453Z AUTO 32011KT 5SM BR OVC005 02/00 A3031 RMK AO2 SLP287 T00170000 51020
Loading
Personal Weather Stations






























Interactive Weather Map
Tropical Storm Tracking
New forecast layout! Learn more

10-Day Weather Forecast

Advertisements
Track Severe Weather on mobile